LGIRLGSR

Guest
Details From LGIR - Iraklion - Nizos Kazantzakis
To LGSR - SANTORINI
Flight Number -
Tags generated
Created
Modified
Stats Distance 65 nm / 121 km
Max Altitude 6,500 ft / 1,981 m
Waypoints 5
Social Downloads 6
Likes 0
Share

Download

Looking for another format? Having issues loading an existing format? Contact us
Advertisement - Login to hide

Notes

Basic altitude profile: - Ascent Rate: 2500ft/min - Ascent Speed: 250kts - Cruise Altitude: 35000ft - Cruise Speed: 420kts - Descent Rate: 1500ft/min - Descent Speed: 250kts Options: - Use NATs: yes - Use PACOTS: yes - Use low airways: yes - Use high airways: yes

Route

LGIR ALIKI J62 SNI LGSR

ID Type Via Altitude (ft/m) Position (lat/lon) Dist (leg/tot) Name
O LGIR APT - 0 / 0 35.33949 / 25.18012 - / 0 nm Iraklion - Nizos Kazantzakis
ALIKI FIX - 6,200 / 1,890 35.92500 / 25.34889 36 / 36 nm
ERITI FIX J62 (AWY-LO) 6,500 / 1,981 36.12306 / 25.40500 12 / 48 nm
SNI VOR J62 (AWY-LO) 6,500 / 1,981 36.39488 / 25.48260 16 / 65 nm SANTORINI VOR-DME
O LGSR APT - 0 / 0 36.39895 / 25.47851 0 / 65 nm SANTORINI

Altitude Profile

Advertisement - Login to hide

LGIR

Details ICAO LGIR (HER)
Name Iraklion - Nikos Kazantzakis
Region Greece
Timezone Europe/Athens (UTC+3.0)
Stats Elevation 115 ft / 35 m (AMSL)
Location 35.339900° 25.178200°
Runways 2
Magnetic Variation 4.701° E

METAR

LGIR 080720Z 28016KT 9999 SCT080 23/18 Q1007 NOSIG

Decode

TAF

TAF LGIR 080500Z 0806/0906 VRB05KT 9999 FEW020 SCT080 BECMG 0807/0809 31012KT FEW020

Decode

Departure Runways

ID Width Length Bearing (true/mag) Surface Threshold Overrun Markings Lighting
09 148 ft / 45 m 8,918 ft / 2,718 m 94.87° / 90.17° ASPHALT 1,575 ft / 480 m 0 ft / 0 m PREC-APP CENTERLINE EDGE THRESHOLD REIL-UNI
12 164 ft / 50 m 5,132 ft / 1,564 m 126.44° / 121.74° ASPHALT 492 ft / 150 m 200 ft / 61 m VISUAL CENTERLINE EDGE THRESHOLD
27 148 ft / 45 m 8,918 ft / 2,718 m 274.88° / 270.18° ASPHALT 0 ft / 0 m 213 ft / 65 m PREC-APP CENTERLINE EDGE THRESHOLD REIL-UNI
30 164 ft / 50 m 5,132 ft / 1,564 m 306.45° / 301.75° ASPHALT 0 ft / 0 m 0 ft / 0 m VISUAL CENTERLINE EDGE THRESHOLD

LGSR

Details ICAO LGSR (JTR)
Name Santorini
Region Greece
Timezone Europe/Athens (UTC+3.0)
Stats Elevation 126 ft / 38 m (AMSL)
Location 36.399500° 25.478900°
Runways 1
Magnetic Variation 4.836° E

METAR

LGSR 080720Z 03007KT 9999 SCT025 22/16 Q1010

Decode

TAF

TAF LGSR 080500Z 0806/0906 10015KT 9999 SCT025 TEMPO 0806/0809 10015G25KT BECMG 0813/0815 06010KT BECMG 0816/0818 36010KT BECMG 0904/0906 36020KT

Decode

Destination Runways

ID Width Length Bearing (true/mag) Surface Threshold Overrun Markings Lighting
15 98 ft / 30 m 7,218 ft / 2,200 m 159.32° / 154.48° ASPHALT 239 ft / 73 m 679 ft / 207 m PREC-APP EDGE THRESHOLD CALVERT REIL-OMNI
33 98 ft / 30 m 7,218 ft / 2,200 m 339.32° / 334.49° ASPHALT 0 ft / 0 m 0 ft / 0 m PREC-APP EDGE THRESHOLD CALVERT REIL-OMNI

Popular Alternatives